Time;durP1;ratioP1;P1;durP2;ratioP2;P2;SDS_P1;SDS_P2;PMS_P1;PMS_P2;Temp;Humidity;BMP_temperature;BMP_pressure;BME280_temperature;BME280_humidity;BME280_pressure;Samples;Min_cycle;Max_cycle;Signal;HPM_P1;HPM_P2
2021/11/16 00:01:00;;;;;;;46.20;26.70;;;;;;;2.85;98.94;97750.89;105306;1314;25714;-84
2021/11/16 00:03:31;;;;;;;65.70;41.70;;;;;;;2.66;98.50;97749.70;105276;1314;25621;-82
2021/11/16 00:06:02;;;;;;;69.00;40.40;;;;;;;2.68;99.09;97748.58;105199;1309;42066;-83
2021/11/16 00:08:32;;;;;;;66.20;41.80;;;;;;;2.76;99.49;97744.30;105257;1314;27200;-84
2021/11/16 00:11:04;;;;;;;62.90;38.10;;;;;;;2.80;99.58;97739.46;105287;1313;27775;-83
2021/11/16 00:13:35;;;;;;;50.40;32.90;;;;;;;2.82;99.49;97734.94;105259;1314;28514;-84
2021/11/16 00:16:06;;;;;;;47.30;29.00;;;;;;;2.82;99.51;97735.82;105107;1309;26897;-84
2021/11/16 00:18:37;;;;;;;45.50;27.30;;;;;;;2.80;99.54;97735.64;105238;1309;27231;-84
2021/11/16 00:21:10;;;;;;;40.90;23.70;;;;;;;2.79;99.53;97730.52;105240;1310;26451;-84
2021/11/16 00:23:42;;;;;;;53.40;30.50;;;;;;;2.77;99.55;97727.55;105243;1312;25398;-84
2021/11/16 00:26:14;;;;;;;45.70;28.90;;;;;;;2.75;99.53;97727.11;105302;1309;29346;-84
2021/11/16 00:28:45;;;;;;;49.90;31.50;;;;;;;2.72;99.46;97724.49;105283;1313;25705;-84
2021/11/16 00:31:14;;;;;;;;;;;;;;;2.70;99.50;97722.44;105227;1314;25896;-84
2021/11/16 00:33:45;;;;;;;42.70;27.00;;;;;;;2.67;99.56;97717.92;105253;1309;25091;-84
2021/11/16 00:36:16;;;;;;;45.60;28.80;;;;;;;2.68;99.68;97715.83;105230;1314;25500;-84
2021/11/16 00:38:46;;;;;;;37.50;24.20;;;;;;;2.66;99.69;97707.44;105293;1309;36509;-84
2021/11/16 00:41:17;;;;;;;38.20;23.80;;;;;;;2.68;99.76;97707.73;105215;1309;26450;-84
2021/11/16 00:43:48;;;;;;;33.60;23.20;;;;;;;2.68;99.36;97707.62;105282;1313;25422;-84
2021/11/16 00:46:19;;;;;;;34.80;22.50;;;;;;;2.44;98.44;97716.97;105135;1314;26981;-83
2021/11/16 00:48:50;;;;;;;35.10;22.40;;;;;;;2.20;97.99;97714.18;105319;1313;30804;-85
2021/11/16 00:51:20;;;;;;;32.30;19.90;;;;;;;2.16;98.14;97718.61;105318;1315;26460;-84
2021/11/16 00:53:51;;;;;;;23.00;14.00;;;;;;;2.31;99.03;97709.97;105339;1309;26286;-84
2021/11/16 00:56:22;;;;;;;27.70;16.40;;;;;;;2.50;99.52;97714.52;105215;1314;26252;-84
2021/11/16 00:58:52;;;;;;;26.90;17.60;;;;;;;2.62;99.69;97713.13;105208;1312;26747;-84
2021/11/16 01:01:21;;;;;;;;;;;;;;;2.66;99.61;97713.92;105212;1309;25552;-84
2021/11/16 01:03:52;;;;;;;29.50;19.00;;;;;;;2.68;99.72;97721.88;105156;1313;28027;-84
2021/11/16 01:06:23;;;;;;;30.30;19.40;;;;;;;2.67;99.49;97725.30;105202;1312;28992;-84
2021/11/16 01:08:54;;;;;;;35.90;19.90;;;;;;;2.64;99.51;97728.58;105344;1309;25063;-84
2021/11/16 01:11:25;;;;;;;38.00;21.00;;;;;;;2.61;99.63;97735.55;105462;1314;25239;-84
2021/11/16 01:13:55;;;;;;;31.50;19.20;;;;;;;2.58;99.72;97732.53;105551;1309;22659;-84
2021/11/16 01:16:26;;;;;;;31.30;18.10;;;;;;;2.52;99.66;97729.38;105553;1314;22566;-84
2021/11/16 01:18:56;;;;;;;;;;;;;;;2.48;99.53;97736.02;105552;1309;23181;-85
2021/11/16 01:21:27;;;;;;;32.30;21.10;;;;;;;2.40;99.43;97735.11;105420;1316;22637;-84
2021/11/16 01:23:58;;;;;;;29.70;18.30;;;;;;;2.31;99.00;97741.70;105446;1309;22615;-84
2021/11/16 01:26:28;;;;;;;33.40;19.30;;;;;;;2.21;98.83;97741.91;105554;1309;22595;-84
2021/11/16 01:29:01;;;;;;;30.60;19.60;;;;;;;2.15;98.71;97744.75;105490;1315;22635;-84
2021/11/16 01:31:33;;;;;;;27.60;17.30;;;;;;;2.09;98.71;97748.51;105587;1314;22564;-84
2021/11/16 01:34:06;;;;;;;31.10;21.70;;;;;;;2.02;98.34;97748.45;105565;1309;22609;-84
2021/11/16 01:36:38;;;;;;;32.20;21.40;;;;;;;1.94;98.36;97748.94;105501;1309;22582;-84
2021/11/16 01:39:08;;;;;;;31.30;19.30;;;;;;;1.88;98.43;97748.52;105567;1309;22579;-84
2021/11/16 01:41:39;;;;;;;26.60;18.30;;;;;;;1.87;98.64;97748.52;105456;1309;22658;-84
2021/11/16 01:44:10;;;;;;;31.10;18.40;;;;;;;1.83;98.78;97748.33;105524;1316;22644;-84
2021/11/16 01:46:42;;;;;;;30.20;18.80;;;;;;;1.81;98.96;97748.48;105526;1310;25429;-84
2021/11/16 01:49:13;;;;;;;29.20;18.00;;;;;;;1.79;99.17;97749.08;105550;1309;22673;-84
2021/11/16 01:51:44;;;;;;;30.80;18.30;;;;;;;1.80;99.22;97750.92;105445;1312;22621;-84
2021/11/16 01:54:15;;;;;;;27.80;18.00;;;;;;;1.81;99.44;97750.08;105537;1309;22551;-84
2021/11/16 01:56:47;;;;;;;27.20;16.50;;;;;;;1.82;99.28;97753.34;105552;1309;22602;-84
2021/11/16 01:59:19;;;;;;;28.70;18.50;;;;;;;1.78;99.14;97750.48;105502;1310;25377;-84
2021/11/16 02:01:51;;;;;;;27.80;16.90;;;;;;;1.73;99.21;97750.34;105487;1313;22567;-84
2021/11/16 02:04:22;;;;;;;26.30;17.20;;;;;;;1.67;98.75;97748.45;105562;1309;22575;-84
2021/11/16 02:06:53;;;;;;;24.90;17.20;;;;;;;1.61;98.71;97751.84;105427;1314;22627;-84
2021/11/16 02:09:24;;;;;;;27.40;16.00;;;;;;;1.53;98.75;97748.33;105548;1309;23284;-84
2021/11/16 02:11:55;;;;;;;28.60;15.90;;;;;;;1.46;98.77;97750.47;105534;1309;22575;-84
2021/11/16 02:14:26;;;;;;;31.60;17.60;;;;;;;1.39;98.79;97754.64;105393;1314;27219;-84
2021/11/16 02:16:57;;;;;;;27.70;16.80;;;;;;;1.39;99.14;97750.20;105476;1309;22788;-84
2021/11/16 02:19:27;;;;;;;29.80;16.60;;;;;;;1.36;99.51;97742.80;105550;1309;24313;-84
2021/11/16 02:21:58;;;;;;;28.30;15.70;;;;;;;1.34;99.66;97740.86;105431;1314;22757;-84
2021/11/16 02:24:29;;;;;;;27.50;16.70;;;;;;;1.38;99.94;97739.15;105566;1309;22578;-84
2021/11/16 02:26:59;;;;;;;26.50;16.10;;;;;;;1.42;99.98;97737.99;105622;1309;22570;-84
2021/11/16 02:29:30;;;;;;;28.10;17.20;;;;;;;1.47;100.00;97735.92;105572;1309;22666;-84
2021/11/16 02:32:01;;;;;;;24.60;15.90;;;;;;;1.52;100.00;97739.80;105553;1310;22579;-84
2021/11/16 02:34:31;;;;;;;29.60;17.90;;;;;;;1.54;100.00;97737.40;105517;1309;22602;-85
2021/11/16 02:37:02;;;;;;;35.90;19.70;;;;;;;1.53;100.00;97730.43;105477;1313;24310;-84
2021/11/16 02:39:34;;;;;;;35.80;19.70;;;;;;;1.53;100.00;97730.07;105584;1309;22601;-84
2021/11/16 02:42:06;;;;;;;27.10;14.10;;;;;;;1.55;100.00;97731.66;105571;1309;22600;-84
2021/11/16 02:44:37;;;;;;;30.70;18.70;;;;;;;1.59;100.00;97732.02;105533;1310;22586;-84
2021/11/16 02:47:08;;;;;;;27.60;15.90;;;;;;;1.64;100.00;97734.84;105457;1315;25355;-84
2021/11/16 02:49:41;;;;;;;28.30;16.50;;;;;;;1.65;100.00;97733.48;105511;1310;25255;-84
2021/11/16 02:52:14;;;;;;;26.40;16.50;;;;;;;1.64;100.00;97728.89;105515;1309;22583;-84
2021/11/16 02:54:45;;;;;;;29.30;16.30;;;;;;;1.62;100.00;97729.65;105534;1309;24215;-84
2021/11/16 02:57:16;;;;;;;34.00;18.60;;;;;;;1.60;100.00;97726.42;105547;1314;22711;-84
2021/11/16 02:59:48;;;;;;;32.00;19.30;;;;;;;1.61;100.00;97724.38;105534;1310;22575;-84
2021/11/16 03:02:19;;;;;;;31.50;18.70;;;;;;;1.61;100.00;97724.34;105524;1314;22614;-85
2021/11/16 03:04:51;;;;;;;28.00;16.80;;;;;;;1.61;100.00;97723.62;105570;1309;22576;-84
2021/11/16 03:07:34;;;;;;;28.90;17.50;;;;;;;1.62;100.00;97723.17;105563;1309;22599;-84
2021/11/16 03:10:07;;;;;;;24.20;14.90;;;;;;;1.58;100.00;97721.44;105515;1309;22565;-84
2021/11/16 03:12:38;;;;;;;22.10;12.70;;;;;;;1.45;100.00;97719.59;105551;1313;22553;-84
2021/11/16 03:15:11;;;;;;;26.10;14.60;;;;;;;1.21;100.00;97713.78;105482;1309;22564;-84
2021/11/16 03:17:41;;;;;;;21.80;13.60;;;;;;;1.02;100.00;97711.97;105574;1309;22583;-84
2021/11/16 03:20:16;;;;;;;23.90;14.10;;;;;;;0.86;100.00;97707.08;105482;1309;22564;-84
2021/11/16 03:22:52;;;;;;;21.50;12.40;;;;;;;0.77;100.00;97707.85;105533;1316;22581;-84
2021/11/16 03:25:28;;;;;;;23.50;14.30;;;;;;;0.70;100.00;97704.02;105612;1309;22582;-84
2021/11/16 03:28:02;;;;;;;21.10;12.50;;;;;;;0.63;100.00;97707.57;105496;1309;22780;-84
2021/11/16 03:30:34;;;;;;;20.00;13.90;;;;;;;0.54;100.00;97709.30;105488;1313;22586;-84
2021/11/16 03:33:06;;;;;;;21.20;13.40;;;;;;;0.50;100.00;97708.14;105547;1309;22744;-84
2021/11/16 03:35:40;;;;;;;22.30;13.40;;;;;;;0.43;100.00;97711.53;105515;1309;22559;-84
2021/11/16 03:38:11;;;;;;;21.90;13.20;;;;;;;0.40;100.00;97710.44;105575;1315;22607;-84
2021/11/16 03:40:43;;;;;;;22.60;13.30;;;;;;;0.41;100.00;97714.73;105556;1309;22586;-84
2021/11/16 03:43:16;;;;;;;22.90;12.00;;;;;;;0.44;100.00;97718.04;105530;1309;22589;-84
2021/11/16 03:45:48;;;;;;;21.30;11.90;;;;;;;0.49;100.00;97718.80;105462;1309;22631;-84
2021/11/16 03:48:20;;;;;;;22.10;13.60;;;;;;;0.54;100.00;97717.27;105521;1309;22597;-84
2021/11/16 03:50:51;;;;;;;22.20;14.00;;;;;;;0.59;100.00;97717.66;105523;1309;25230;-84
2021/11/16 03:53:22;;;;;;;26.10;15.00;;;;;;;0.66;100.00;97717.17;105469;1309;22602;-84
2021/11/16 03:55:53;;;;;;;32.20;17.30;;;;;;;0.72;100.00;97714.30;105506;1309;22645;-84
2021/11/16 03:58:25;;;;;;;33.70;18.50;;;;;;;0.77;100.00;97708.13;105551;1313;22563;-84
2021/11/16 04:00:59;;;;;;;28.60;17.40;;;;;;;0.83;100.00;97707.33;105594;1309;25389;-84
2021/11/16 04:03:33;;;;;;;30.20;17.90;;;;;;;0.89;100.00;97707.14;105473;1310;22560;-84
2021/11/16 04:06:06;;;;;;;32.20;17.80;;;;;;;0.94;100.00;97712.55;105442;1313;24580;-84
2021/11/16 04:08:38;;;;;;;29.70;17.10;;;;;;;0.97;100.00;97709.39;105518;1309;22609;-84
2021/11/16 04:11:09;;;;;;;27.70;16.60;;;;;;;0.99;100.00;97712.18;105509;1309;22592;-84
2021/11/16 04:13:41;;;;;;;27.20;15.50;;;;;;;0.99;100.00;97708.63;105545;1309;24251;-84
2021/11/16 04:16:11;;;;;;;31.00;17.30;;;;;;;1.03;100.00;97710.41;105436;1309;24202;-84
2021/11/16 04:18:43;;;;;;;27.80;16.00;;;;;;;1.07;100.00;97713.17;105497;1309;22604;-83
2021/11/16 04:21:14;;;;;;;26.10;16.10;;;;;;;1.11;100.00;97712.05;105588;1309;22602;-84
2021/11/16 04:23:45;;;;;;;24.20;15.50;;;;;;;1.11;100.00;97711.30;105560;1309;23119;-84
2021/11/16 04:26:16;;;;;;;26.20;15.30;;;;;;;1.09;100.00;97710.84;105518;1309;22579;-84
2021/11/16 04:28:46;;;;;;;25.00;15.30;;;;;;;1.08;100.00;97707.34;105445;1315;22690;-84
2021/11/16 04:31:17;;;;;;;22.80;13.10;;;;;;;1.08;100.00;97705.77;105556;1309;22734;-83
2021/11/16 04:33:48;;;;;;;20.90;12.50;;;;;;;1.00;100.00;97703.32;105531;1314;22586;-84
2021/11/16 04:36:18;;;;;;;20.40;12.20;;;;;;;0.84;100.00;97703.36;105549;1313;22573;-84
2021/11/16 04:38:49;;;;;;;23.80;14.20;;;;;;;0.79;100.00;97702.92;105463;1309;22725;-84
2021/11/16 04:41:20;;;;;;;20.30;12.90;;;;;;;0.77;100.00;97702.19;105523;1309;22567;-84
2021/11/16 04:43:51;;;;;;;22.00;12.90;;;;;;;0.74;100.00;97702.85;105441;1310;22579;-84
2021/11/16 04:46:23;;;;;;;19.20;12.20;;;;;;;0.73;100.00;97700.23;105474;1316;24324;-84
2021/11/16 04:49:01;;;;;;;24.90;13.60;;;;;;;0.71;100.00;97698.95;105522;1309;22605;-84
2021/11/16 04:51:49;;;;;;;22.90;13.70;;;;;;;0.73;100.00;97696.90;105547;1313;22639;-84
2021/11/16 04:54:47;;;;;;;20.60;12.60;;;;;;;0.77;100.00;97695.77;105571;1309;25448;-84
2021/11/16 05:02:52;;;;;;;20.00;13.00;;;;;;;0.83;100.00;97693.10;105512;1314;22579;-84
2021/11/16 05:05:24;;;;;;;18.50;11.60;;;;;;;0.84;100.00;97693.99;105531;1316;22563;-84
2021/11/16 05:07:59;;;;;;;20.80;12.70;;;;;;;0.85;100.00;97693.67;105534;1309;23247;-84
2021/11/16 05:10:30;;;;;;;21.90;13.10;;;;;;;0.85;100.00;97700.61;105548;1309;22602;-84
2021/11/16 05:13:01;;;;;;;18.40;12.20;;;;;;;0.85;100.00;97703.61;105510;1309;22567;-83
2021/11/16 05:15:34;;;;;;;23.10;13.00;;;;;;;0.82;100.00;97703.26;105537;1313;22612;-84
2021/11/16 05:18:05;;;;;;;23.40;13.60;;;;;;;0.71;100.00;97706.10;105567;1309;22597;-84
2021/11/16 05:20:37;;;;;;;25.00;13.10;;;;;;;0.62;100.00;97704.07;105595;1313;22627;-83
2021/11/16 05:23:10;;;;;;;20.10;11.80;;;;;;;0.54;100.00;97701.99;105557;1309;25319;-83
2021/11/16 05:25:41;;;;;;;20.80;12.50;;;;;;;0.40;100.00;97698.90;105583;1309;22580;-83
2021/11/16 05:28:12;;;;;;;19.20;12.10;;;;;;;0.24;100.00;97701.67;105485;1313;23329;-83
2021/11/16 05:30:42;;;;;;;17.90;11.90;;;;;;;0.18;100.00;97708.84;105485;1310;22567;-84
2021/11/16 05:33:13;;;;;;;17.90;11.80;;;;;;;0.22;100.00;97718.38;105553;1309;22575;-83
2021/11/16 05:35:44;;;;;;;20.60;12.20;;;;;;;0.31;100.00;97716.55;105503;1309;22589;-83
2021/11/16 05:38:25;;;;;;;22.00;12.60;;;;;;;0.38;100.00;97719.52;105542;1309;22580;-84
2021/11/16 05:40:57;;;;;;;17.50;11.80;;;;;;;0.45;100.00;97720.22;105450;1309;25462;-84
2021/11/16 05:43:29;;;;;;;21.70;13.50;;;;;;;0.52;100.00;97723.48;105427;1314;22586;-84
2021/11/16 05:46:01;;;;;;;21.40;12.10;;;;;;;0.55;100.00;97716.65;105502;1309;23034;-84
2021/11/16 05:48:36;;;;;;;21.80;12.70;;;;;;;0.58;100.00;97723.13;105490;1309;24337;-84
2021/11/16 05:51:08;;;;;;;20.00;12.50;;;;;;;0.64;100.00;97721.94;105517;1309;22688;-83
2021/11/16 05:53:41;;;;;;;22.10;12.20;;;;;;;0.64;100.00;97717.54;105497;1309;22560;-84
2021/11/16 05:56:12;;;;;;;19.40;11.10;;;;;;;0.56;100.00;97721.96;105551;1309;23213;-84
2021/11/16 05:58:43;;;;;;;19.20;12.90;;;;;;;0.49;100.00;97722.61;105516;1309;22593;-84
2021/11/16 06:01:14;;;;;;;27.90;16.40;;;;;;;0.42;100.00;97720.94;105535;1309;23806;-83
2021/11/16 06:03:50;;;;;;;18.50;12.10;;;;;;;0.38;100.00;97723.11;105564;1309;22568;-83
2021/11/16 06:06:23;;;;;;;17.40;10.60;;;;;;;0.36;100.00;97723.34;105572;1309;22568;-83
2021/11/16 06:08:55;;;;;;;15.90;11.00;;;;;;;0.33;100.00;97728.41;105583;1313;22563;-83
2021/11/16 06:11:27;;;;;;;20.00;11.60;;;;;;;0.31;100.00;97725.17;105526;1309;25497;-83
2021/11/16 06:13:58;;;;;;;18.10;11.30;;;;;;;0.31;100.00;97725.98;105600;1309;22590;-83
2021/11/16 06:16:29;;;;;;;19.90;12.00;;;;;;;0.30;100.00;97730.52;105476;1315;24309;-83
2021/11/16 06:19:01;;;;;;;18.60;11.50;;;;;;;0.34;100.00;97732.98;105508;1313;22634;-83
2021/11/16 06:21:32;;;;;;;18.30;11.70;;;;;;;0.38;100.00;97735.63;105452;1312;22613;-83
2021/11/16 06:24:04;;;;;;;20.00;11.80;;;;;;;0.44;100.00;97737.22;105511;1309;23587;-83
2021/11/16 06:26:34;;;;;;;19.90;11.70;;;;;;;0.51;100.00;97741.17;105563;1309;22622;-83
2021/11/16 06:29:07;;;;;;;20.00;11.50;;;;;;;0.61;100.00;97737.42;105522;1315;22564;-83
2021/11/16 06:31:38;;;;;;;17.90;11.40;;;;;;;0.69;100.00;97737.64;105436;1309;24206;-84
2021/11/16 06:34:09;;;;;;;19.80;12.00;;;;;;;0.76;100.00;97729.40;105533;1309;25479;-83
2021/11/16 06:36:42;;;;;;;21.90;12.90;;;;;;;0.85;100.00;97730.64;105516;1309;22583;-83
2021/11/16 06:39:16;;;;;;;19.00;12.30;;;;;;;0.93;100.00;97735.15;105495;1309;23064;-84
2021/11/16 06:41:48;;;;;;;18.50;12.30;;;;;;;1.03;100.00;97733.63;105468;1309;22586;-83
2021/11/16 06:44:21;;;;;;;19.10;11.00;;;;;;;1.10;100.00;97735.80;105469;1312;23019;-83
2021/11/16 06:46:54;;;;;;;20.60;11.30;;;;;;;1.15;100.00;97733.80;105321;1314;265332;-83
2021/11/16 06:49:25;;;;;;;20.20;11.70;;;;;;;1.19;100.00;97735.19;105420;1315;22586;-83
2021/11/16 06:51:57;;;;;;;17.60;9.60;;;;;;;1.21;100.00;97736.96;105539;1316;24631;-84
2021/11/16 06:54:30;;;;;;;18.70;12.00;;;;;;;1.21;100.00;97743.55;105424;1317;22586;-83
2021/11/16 06:57:00;;;;;;;16.80;11.50;;;;;;;1.24;100.00;97749.27;105525;1309;25393;-83
2021/11/16 06:59:31;;;;;;;16.00;10.50;;;;;;;1.27;100.00;97747.13;105536;1309;22567;-83
2021/11/16 07:02:02;;;;;;;16.60;10.00;;;;;;;1.27;100.00;97753.20;105560;1310;25322;-83
2021/11/16 07:04:39;;;;;;;20.70;11.40;;;;;;;1.33;100.00;97756.50;105551;1316;22572;-84
2021/11/16 07:07:10;;;;;;;14.10;9.10;;;;;;;1.38;100.00;97761.23;105522;1310;22705;-83
2021/11/16 07:09:43;;;;;;;14.50;9.40;;;;;;;1.21;100.00;97757.83;105495;1316;25316;-83
2021/11/16 07:12:17;;;;;;;14.70;9.20;;;;;;;1.08;100.00;97759.23;105504;1309;24206;-83
2021/11/16 07:14:47;;;;;;;15.50;9.90;;;;;;;1.07;100.00;97762.70;105588;1313;22617;-83
2021/11/16 07:17:20;;;;;;;18.90;11.80;;;;;;;1.18;100.00;97763.42;105582;1309;22575;-83
2021/11/16 07:19:55;;;;;;;17.50;11.00;;;;;;;1.37;100.00;97764.16;105546;1310;22583;-83
2021/11/16 07:22:29;;;;;;;16.80;11.50;;;;;;;1.57;100.00;97764.80;105623;1313;22563;-84
2021/11/16 07:25:05;;;;;;;19.70;12.00;;;;;;;1.76;100.00;97764.81;105594;1309;23684;-84
2021/11/16 07:27:38;;;;;;;15.90;10.50;;;;;;;1.94;100.00;97765.30;105521;1309;22566;-84
2021/11/16 07:30:13;;;;;;;16.50;11.80;;;;;;;2.06;100.00;97766.25;105543;1309;28972;-84
2021/11/16 07:32:50;;;;;;;18.10;11.50;;;;;;;2.18;100.00;97767.14;105181;1312;26597;-83
2021/11/16 07:35:25;;;;;;;17.80;10.50;;;;;;;2.31;100.00;97769.27;105335;1314;28050;-83
2021/11/16 07:38:00;;;;;;;18.40;11.20;;;;;;;2.36;100.00;97771.54;105319;1313;27919;-83
2021/11/16 07:40:32;;;;;;;16.10;11.30;;;;;;;2.41;100.00;97770.33;105288;1310;25984;-84
2021/11/16 07:43:07;;;;;;;18.30;10.50;;;;;;;2.46;100.00;97769.35;105345;1309;45131;-83
2021/11/16 07:45:41;;;;;;;15.20;10.80;;;;;;;2.48;100.00;97763.80;105365;1309;25534;-83
2021/11/16 07:48:15;;;;;;;16.90;10.80;;;;;;;2.52;100.00;97770.41;105295;1309;27474;-83
2021/11/16 07:50:49;;;;;;;18.30;11.60;;;;;;;2.56;100.00;97772.20;105371;1309;25577;-84
2021/11/16 07:53:25;;;;;;;21.40;12.20;;;;;;;2.57;99.97;97778.13;105331;1313;25923;-84
2021/11/16 07:56:03;;;;;;;19.50;12.50;;;;;;;2.66;100.00;97776.64;105270;1309;29702;-84
2021/11/16 07:58:36;;;;;;;21.30;12.30;;;;;;;2.82;100.00;97780.29;105325;1309;27550;-83
2021/11/16 08:01:13;;;;;;;19.00;12.50;;;;;;;3.22;100.00;97774.33;105241;1315;26648;-84
2021/11/16 08:03:49;;;;;;;18.60;12.30;;;;;;;4.02;100.00;97770.73;105256;1316;28110;-84
2021/11/16 08:06:27;;;;;;;16.90;11.70;;;;;;;4.89;100.00;97765.53;105282;1316;25508;-83
2021/11/16 08:09:11;;;;;;;16.50;11.20;;;;;;;5.60;99.85;97769.40;105282;1309;26104;-83
2021/11/16 08:11:45;;;;;;;17.50;10.40;;;;;;;5.92;98.23;97770.94;105362;1314;25472;-83
2021/11/16 08:14:17;;;;;;;15.70;10.40;;;;;;;5.96;96.34;97774.11;105310;1313;26577;-83
2021/11/16 08:16:57;;;;;;;18.00;11.10;;;;;;;5.91;94.97;97772.41;105305;1309;35830;-83
2021/11/16 08:19:31;;;;;;;13.90;9.70;;;;;;;5.74;93.88;97771.44;105340;1313;28082;-83
2021/11/16 08:22:06;;;;;;;15.20;9.80;;;;;;;5.80;93.67;97769.72;105277;1309;24793;-83
2021/11/16 08:24:40;;;;;;;13.40;9.40;;;;;;;5.63;92.68;97768.79;105347;1309;25724;-83
2021/11/16 08:27:14;;;;;;;12.50;8.60;;;;;;;5.72;92.54;97773.69;105360;1315;24969;-83
2021/11/16 08:29:47;;;;;;;14.10;9.40;;;;;;;5.79;92.03;97773.73;105361;1309;36141;-83
2021/11/16 08:32:21;;;;;;;15.20;9.40;;;;;;;5.60;91.30;97772.59;105276;1313;26685;-83
2021/11/16 08:34:55;;;;;;;16.70;9.80;;;;;;;5.30;90.62;97769.83;105340;1312;28354;-83
2021/11/16 08:37:31;;;;;;;14.20;10.10;;;;;;;5.00;89.92;97763.53;105130;1312;26337;-83
2021/11/16 08:40:06;;;;;;;13.00;9.30;;;;;;;4.63;89.82;97755.74;105302;1315;26659;-83
2021/11/16 08:42:39;;;;;;;14.90;9.60;;;;;;;4.41;90.16;97754.27;105383;1315;26762;-84
2021/11/16 08:45:14;;;;;;;13.40;9.20;;;;;;;4.09;89.90;97747.86;105339;1309;26232;-84
2021/11/16 08:47:48;;;;;;;12.10;8.20;;;;;;;3.94;90.72;97746.60;105314;1314;27456;-83
2021/11/16 08:50:27;;;;;;;13.00;8.70;;;;;;;3.97;91.29;97749.47;105262;1313;30402;-84
2021/11/16 08:53:00;;;;;;;13.20;9.10;;;;;;;3.95;91.49;97748.14;105324;1315;30851;-83
2021/11/16 08:55:33;;;;;;;14.00;9.90;;;;;;;4.08;92.09;97744.92;105346;1314;25227;-83
2021/11/16 08:58:08;;;;;;;13.70;9.20;;;;;;;4.30;92.24;97748.41;105342;1309;30814;-83
2021/11/16 09:00:42;;;;;;;22.20;13.80;;;;;;;4.29;91.74;97749.52;105277;1310;25943;-84
2021/11/16 09:03:15;;;;;;;25.40;14.60;;;;;;;4.00;91.34;97748.27;105249;1309;26488;-83
2021/11/16 09:05:47;;;;;;;18.30;12.70;;;;;;;3.82;91.53;97755.40;105284;1309;29980;-84
2021/11/16 09:08:23;;;;;;;22.80;14.20;;;;;;;3.75;92.04;97756.39;105173;1316;27282;-84
2021/11/16 09:10:56;;;;;;;22.80;13.60;;;;;;;3.95;92.89;97745.73;105228;1315;24646;-84
2021/11/16 09:13:30;;;;;;;22.10;14.10;;;;;;;4.35;93.45;97743.75;105251;1309;27476;-84
2021/11/16 09:16:06;;;;;;;23.60;14.40;;;;;;;4.61;93.27;97738.78;105210;1315;25894;-83
2021/11/16 09:18:40;;;;;;;23.90;14.70;;;;;;;4.76;92.74;97734.30;105248;1315;26118;-83
2021/11/16 09:21:14;;;;;;;23.50;14.00;;;;;;;4.73;92.13;97732.67;105300;1314;26140;-83
2021/11/16 09:23:49;;;;;;;20.00;13.20;;;;;;;4.68;91.94;97727.88;105275;1312;26026;-83
2021/11/16 09:26:31;;;;;;;23.90;13.80;;;;;;;4.76;92.05;97723.60;105264;1313;29195;-83
2021/11/16 09:29:04;;;;;;;21.00;13.40;;;;;;;4.92;91.81;97721.90;105248;1314;26836;-83
2021/11/16 09:31:39;;;;;;;19.80;13.10;;;;;;;4.90;91.43;97725.31;105250;1316;27164;-83
2021/11/16 09:34:28;;;;;;;20.70;13.70;;;;;;;4.79;91.11;97719.90;105388;1309;25136;-83
2021/11/16 09:37:01;;;;;;;23.40;14.70;;;;;;;4.83;91.19;97721.41;105316;1309;25243;-83
2021/11/16 09:39:38;;;;;;;26.50;15.80;;;;;;;4.76;90.74;97723.04;105341;1316;27968;-83
2021/11/16 09:42:13;;;;;;;22.00;13.80;;;;;;;4.66;91.09;97727.23;105381;1309;25074;-83
2021/11/16 09:44:48;;;;;;;22.70;13.90;;;;;;;4.58;90.92;97728.63;105277;1315;25642;-82
2021/11/16 09:47:22;;;;;;;24.40;14.80;;;;;;;4.46;90.74;97726.15;105274;1309;26515;-82
2021/11/16 09:49:58;;;;;;;20.50;15.20;;;;;;;4.51;91.57;97723.09;105333;1309;24792;-83
2021/11/16 09:52:35;;;;;;;23.20;14.40;;;;;;;4.76;92.14;97721.55;105298;1309;27476;-83
2021/11/16 09:55:11;;;;;;;22.20;14.90;;;;;;;4.88;91.90;97725.65;105343;1316;25627;-83
2021/11/16 09:57:44;;;;;;;24.40;15.30;;;;;;;4.97;91.88;97720.78;105313;1314;26035;-82
2021/11/16 10:00:20;;;;;;;19.30;12.70;;;;;;;4.87;91.37;97716.13;105336;1315;25473;-82
2021/11/16 10:02:54;;;;;;;21.90;14.40;;;;;;;4.82;91.32;97717.59;105304;1309;28643;-83
2021/11/16 10:05:28;;;;;;;20.60;13.70;;;;;;;4.92;91.86;97717.63;105343;1315;27505;-83
2021/11/16 10:08:01;;;;;;;20.50;14.00;;;;;;;5.04;91.70;97711.20;105300;1315;26468;-83
2021/11/16 10:10:37;;;;;;;23.50;15.20;;;;;;;5.10;91.65;97707.34;105347;1314;24766;-83
2021/11/16 10:13:11;;;;;;;20.80;13.70;;;;;;;5.16;91.43;97709.25;105367;1309;25425;-83
2021/11/16 10:15:45;;;;;;;23.40;15.00;;;;;;;5.01;90.58;97707.52;105317;1316;25316;-82
2021/11/16 10:18:17;;;;;;;24.40;15.80;;;;;;;4.73;90.33;97704.96;105330;1310;26171;-83
2021/11/16 10:20:49;;;;;;;22.50;14.50;;;;;;;4.62;90.67;97700.35;105314;1315;37604;-83
2021/11/16 10:23:30;;;;;;;23.90;14.80;;;;;;;4.50;90.77;97694.81;105300;1313;27074;-84
2021/11/16 10:26:03;;;;;;;23.50;14.50;;;;;;;4.57;91.54;97689.64;105320;1315;27045;-84
2021/11/16 10:28:36;;;;;;;25.20;14.90;;;;;;;4.53;91.29;97689.71;105301;1309;28198;-83
2021/11/16 10:31:08;;;;;;;23.40;13.70;;;;;;;4.33;90.72;97685.80;105346;1309;24994;-84
2021/11/16 10:33:40;;;;;;;21.00;13.60;;;;;;;4.20;90.89;97688.19;105207;1316;24554;-83
2021/11/16 10:36:14;;;;;;;24.20;15.30;;;;;;;4.30;91.52;97684.52;105343;1314;29627;-83
2021/11/16 10:38:47;;;;;;;21.40;13.20;;;;;;;4.72;92.61;97681.65;105251;1315;28189;-83
2021/11/16 10:41:23;;;;;;;22.50;14.50;;;;;;;4.97;92.02;97676.39;105263;1313;26237;-83
2021/11/16 10:43:57;;;;;;;24.30;15.60;;;;;;;5.04;91.80;97680.05;105258;1316;27763;-83
2021/11/16 10:46:30;;;;;;;22.80;14.20;;;;;;;5.28;91.96;97681.51;105138;1316;28701;-83
2021/11/16 10:49:06;;;;;;;22.20;13.90;;;;;;;5.41;91.70;97685.03;105193;1313;26381;-83
2021/11/16 10:51:37;;;;;;;25.30;15.30;;;;;;;5.46;91.20;97680.96;105128;1315;27053;-83
2021/11/16 10:54:11;;;;;;;21.40;13.30;;;;;;;5.58;91.57;97680.91;105344;1315;27801;-83
2021/11/16 10:56:44;;;;;;;24.00;15.30;;;;;;;5.64;91.03;97681.54;105261;1315;30676;-82
2021/11/16 10:59:17;;;;;;;23.70;14.50;;;;;;;5.42;89.78;97683.43;105276;1315;27396;-82
2021/11/16 11:01:50;;;;;;;23.70;16.30;;;;;;;5.05;89.41;97679.67;105118;1318;27755;-84
2021/11/16 11:04:23;;;;;;;27.20;16.50;;;;;;;4.63;89.51;97675.54;105241;1314;27207;-84
2021/11/16 11:06:55;;;;;;;27.70;17.10;;;;;;;4.35;89.84;97678.68;105154;1315;24383;-83
2021/11/16 11:09:26;;;;;;;25.00;16.60;;;;;;;4.22;90.61;97679.62;105239;1316;26557;-83
2021/11/16 11:11:57;;;;;;;28.60;17.60;;;;;;;4.16;90.92;97677.63;105193;1317;32264;-83
2021/11/16 11:14:36;;;;;;;25.00;17.10;;;;;;;4.01;91.07;97672.10;105149;1312;26433;-83
2021/11/16 11:17:11;;;;;;;27.20;16.60;;;;;;;3.88;91.23;97672.44;105326;1315;26382;-83
2021/11/16 11:19:44;;;;;;;32.30;18.70;;;;;;;3.85;91.69;97671.58;105206;1315;26987;-82
2021/11/16 11:22:20;;;;;;;36.50;22.00;;;;;;;3.87;91.98;97672.69;105231;1309;29065;-83
2021/11/16 11:24:59;;;;;;;43.00;23.30;;;;;;;3.87;92.10;97672.09;105219;1315;25462;-83
2021/11/16 11:27:33;;;;;;;33.20;20.50;;;;;;;3.87;92.47;97672.69;105144;1316;24858;-83
2021/11/16 11:30:13;;;;;;;29.00;18.50;;;;;;;3.92;92.45;97671.98;105229;1313;24445;-83
2021/11/16 11:32:46;;;;;;;21.90;12.60;;;;;;;3.98;92.81;97662.72;105204;1309;27445;-82
2021/11/16 11:35:21;;;;;;;31.00;18.40;;;;;;;4.04;92.71;97661.82;105130;1315;24853;-83
2021/11/16 11:37:54;;;;;;;30.10;18.60;;;;;;;4.04;92.83;97658.67;105304;1314;26145;-83
2021/11/16 11:40:31;;;;;;;29.90;17.60;;;;;;;4.11;92.92;97654.92;105317;1309;27374;-82
2021/11/16 11:43:05;;;;;;;30.00;19.90;;;;;;;4.15;92.91;97654.86;105304;1315;26773;-83
2021/11/16 11:45:38;;;;;;;27.40;17.50;;;;;;;4.14;92.82;97652.16;105307;1314;25444;-83